Time;durP1;ratioP1;P1;durP2;ratioP2;P2;SDS_P1;SDS_P2;PMS_P1;PMS_P2;Temp;Humidity;BMP_temperature;BMP_pressure;BME280_temperature;BME280_humidity;BME280_pressure;Samples;Min_cycle;Max_cycle;Signal;HPM_P1;HPM_P2
2023/01/14 00:01:30;;;;;;;26.13;6.68;;;;;;;0.77;100.00;94308.38;5050956;28;20489;-64
2023/01/14 00:03:57;;;;;;;27.52;6.45;;;;;;;0.83;100.00;94314.34;5051625;28;20404;-64
2023/01/14 00:06:27;;;;;;;20.63;5.38;;;;;;;0.91;100.00;94318.03;5050842;28;20059;-64
2023/01/14 00:08:58;;;;;;;18.17;4.57;;;;;;;1.00;100.00;94315.94;5033857;28;20075;-64
2023/01/14 00:14:13;;;;;;;12.82;3.42;;;;;;;1.33;100.00;94299.47;5051348;28;20049;-64
2023/01/14 00:16:40;;;;;;;15.48;4.38;;;;;;;1.37;100.00;94302.25;5049331;28;20776;-65
2023/01/14 00:19:08;;;;;;;26.48;6.32;;;;;;;1.32;100.00;94305.97;5050926;28;20114;-64
2023/01/14 00:21:34;;;;;;;20.87;5.37;;;;;;;1.23;100.00;94301.88;5050757;28;20090;-64
2023/01/14 00:24:01;;;;;;;18.90;4.53;;;;;;;1.40;100.00;94302.34;5051108;28;20049;-64
2023/01/14 00:26:28;;;;;;;6.78;1.80;;;;;;;1.62;100.00;94300.16;5050430;28;20048;-64
2023/01/14 00:28:54;;;;;;;5.93;1.90;;;;;;;1.74;100.00;94302.00;5051115;28;20053;-64
2023/01/14 00:31:24;;;;;;;9.07;3.03;;;;;;;1.81;100.00;94310.28;5050432;28;20443;-64
2023/01/14 00:33:51;;;;;;;11.80;3.00;;;;;;;1.83;100.00;94307.22;5050886;28;20083;-64
2023/01/14 00:36:20;;;;;;;6.18;1.98;;;;;;;1.84;100.00;94315.00;5050104;28;20478;-65
2023/01/14 00:38:47;;;;;;;8.00;2.10;;;;;;;1.92;100.00;94315.97;5050881;28;20040;-64
2023/01/14 00:41:16;;;;;;;5.90;1.50;;;;;;;2.03;100.00;94322.41;5050547;28;20043;-65
2023/01/14 00:43:46;;;;;;;4.90;1.48;;;;;;;2.04;100.00;94309.69;5051097;28;20047;-65
2023/01/14 00:46:19;;;;;;;4.03;1.50;;;;;;;2.08;100.00;94318.66;5050119;28;20037;-64
2023/01/14 00:48:46;;;;;;;6.43;2.28;;;;;;;2.12;100.00;94306.78;5050957;28;20053;-64
2023/01/14 00:51:14;;;;;;;7.60;2.53;;;;;;;2.07;100.00;94307.03;5050044;28;20049;-64
2023/01/14 00:53:42;;;;;;;6.00;1.65;;;;;;;2.08;100.00;94302.41;5050565;28;20041;-65
2023/01/14 00:56:09;;;;;;;5.55;1.63;;;;;;;2.10;100.00;94295.50;5050358;28;20444;-65
2023/01/14 00:58:36;;;;;;;11.53;3.77;;;;;;;2.12;100.00;94304.06;5050027;28;20045;-64
2023/01/14 01:01:03;;;;;;;22.00;10.48;;;;;;;2.11;100.00;94304.41;5050341;28;20049;-65
2023/01/14 01:03:30;;;;;;;7.10;2.80;;;;;;;2.13;100.00;94299.44;5050265;28;20055;-65
2023/01/14 01:05:57;;;;;;;6.70;1.70;;;;;;;2.05;100.00;94308.53;5050675;28;20052;-65
2023/01/14 01:08:24;;;;;;;5.72;1.52;;;;;;;2.00;100.00;94304.16;5049665;28;20036;-65
2023/01/14 01:10:53;;;;;;;8.63;2.30;;;;;;;2.00;100.00;94307.66;5050352;28;20056;-64
2023/01/14 01:13:22;;;;;;;10.77;3.10;;;;;;;2.07;100.00;94311.66;5035502;28;20041;-65
2023/01/14 01:15:50;;;;;;;7.80;1.95;;;;;;;2.04;100.00;94307.75;5049636;28;20041;-65
2023/01/14 01:18:18;;;;;;;7.47;2.10;;;;;;;2.08;100.00;94311.31;5049855;28;20379;-65
2023/01/14 01:20:45;;;;;;;4.40;1.33;;;;;;;2.10;100.00;94309.03;5050479;28;20102;-65
2023/01/14 01:23:13;;;;;;;4.63;1.40;;;;;;;2.16;100.00;94306.84;5049560;28;20429;-64
2023/01/14 01:25:41;;;;;;;5.28;1.20;;;;;;;2.19;100.00;94309.66;5050256;28;20041;-65
2023/01/14 01:28:07;;;;;;;6.38;1.60;;;;;;;2.29;100.00;94321.84;5050202;28;20301;-65
2023/01/14 01:30:34;;;;;;;5.38;1.60;;;;;;;2.27;100.00;94326.81;5032105;28;20036;-64
2023/01/14 01:33:02;;;;;;;10.43;3.03;;;;;;;2.28;100.00;94331.13;5050324;28;20438;-65
2023/01/14 01:35:29;;;;;;;6.13;2.03;;;;;;;2.30;100.00;94334.25;5049581;28;20058;-65
2023/01/14 01:38:00;;;;;;;7.63;1.50;;;;;;;2.07;100.00;94336.81;5049894;28;20045;-65
2023/01/14 01:40:28;;;;;;;5.60;1.63;;;;;;;2.27;100.00;94345.00;5049513;28;20045;-65
2023/01/14 01:42:55;;;;;;;7.15;1.88;;;;;;;2.34;100.00;94347.88;5050067;28;20559;-65
2023/01/14 01:45:38;;;;;;;6.80;1.65;;;;;;;2.11;100.00;94345.03;5015350;28;20041;-65
2023/01/14 01:48:18;;;;;;;4.80;1.33;;;;;;;1.82;100.00;94349.75;5053651;28;20482;-64
2023/01/14 01:50:51;;;;;;;5.80;1.58;;;;;;;1.98;100.00;94349.75;5053346;28;20041;-64
2023/01/14 01:53:19;;;;;;;9.32;2.60;;;;;;;2.08;100.00;94343.03;5053337;28;20102;-65
2023/01/14 01:55:50;;;;;;;5.45;1.27;;;;;;;1.85;100.00;94346.38;5054053;28;20048;-65
2023/01/14 01:58:17;;;;;;;5.32;1.63;;;;;;;1.86;100.00;94355.25;5053570;28;20063;-65
2023/01/14 02:00:44;;;;;;;3.93;1.30;;;;;;;1.70;100.00;94347.91;5053941;28;20572;-65
2023/01/14 02:03:17;;;;;;;3.63;1.10;;;;;;;2.00;100.00;94358.31;5054049;28;20379;-65
2023/01/14 02:05:45;;;;;;;4.20;1.55;;;;;;;2.08;100.00;94367.41;5052790;28;20440;-65
2023/01/14 02:08:12;;;;;;;4.28;1.05;;;;;;;2.21;100.00;94355.31;5053136;28;20051;-65
2023/01/14 02:10:53;;;;;;;3.75;1.02;;;;;;;2.02;100.00;94353.34;5053762;28;20049;-65
2023/01/14 02:13:33;;;;;;;2.40;0.90;;;;;;;1.94;100.00;94348.88;5052969;28;20041;-65
2023/01/14 02:16:28;;;;;;;2.65;1.02;;;;;;;2.00;100.00;94353.69;5053745;28;20045;-64
2023/01/14 02:19:29;;;;;;;4.10;1.58;;;;;;;1.94;100.00;94357.78;5039909;28;20629;-65
2023/01/14 02:22:25;;;;;;;3.80;1.25;;;;;;;2.10;100.00;94348.88;5052279;28;20401;-65
2023/01/14 02:25:30;;;;;;;3.67;1.40;;;;;;;1.96;100.00;94333.84;5052604;28;20975;-65
2023/01/14 02:28:12;;;;;;;3.07;1.00;;;;;;;2.00;100.00;94344.78;5034965;28;20676;-64
2023/01/14 02:30:57;;;;;;;3.60;1.27;;;;;;;1.91;100.00;94344.97;5052468;28;20064;-65
2023/01/14 02:33:41;;;;;;;5.18;1.90;;;;;;;1.75;100.00;94339.53;5052730;28;20048;-64
2023/01/14 02:36:29;;;;;;;3.00;1.45;;;;;;;1.68;100.00;94339.34;5053396;28;20473;-64
2023/01/14 02:39:21;;;;;;;4.30;2.40;;;;;;;1.41;100.00;94335.59;5052392;28;20424;-65
2023/01/14 02:45:02;;;;;;;3.50;1.10;;;;;;;1.48;100.00;94334.97;5052221;28;20447;-65
2023/01/14 02:47:32;;;;;;;2.85;1.20;;;;;;;1.60;100.00;94343.00;5035045;28;20051;-65
2023/01/14 02:50:00;;;;;;;6.75;1.50;;;;;;;1.75;100.00;94344.97;5052827;28;20455;-65
2023/01/14 02:52:27;;;;;;;3.63;1.25;;;;;;;1.71;100.00;94351.41;5052423;28;20045;-66
2023/01/14 02:55:03;;;;;;;3.83;1.03;;;;;;;1.83;100.00;94364.06;5052967;28;20052;-65
2023/01/14 02:57:51;;;;;;;4.63;1.52;;;;;;;1.71;100.00;94363.03;5052477;28;20051;-65
2023/01/14 03:00:22;;;;;;;14.98;3.92;;;;;;;1.75;100.00;94360.38;5052159;28;20405;-65
2023/01/14 03:03:10;;;;;;;18.58;4.90;;;;;;;1.88;100.00;94356.47;5052635;28;20094;-65
2023/01/14 03:05:47;;;;;;;14.60;4.03;;;;;;;1.95;100.00;94348.53;5051790;28;20587;-65
2023/01/14 03:08:30;;;;;;;8.83;2.20;;;;;;;1.94;100.00;94344.25;5052025;28;20063;-65
2023/01/14 03:11:04;;;;;;;8.20;2.33;;;;;;;1.84;100.00;94322.34;5052900;28;20408;-65
2023/01/14 03:13:45;;;;;;;9.10;3.17;;;;;;;1.72;100.00;94315.88;5052021;28;20056;-65
2023/01/14 03:16:36;;;;;;;6.38;2.45;;;;;;;1.85;100.00;94316.59;5050856;28;20037;-65
2023/01/14 03:19:02;;;;;;;9.30;3.00;;;;;;;1.89;100.00;94316.66;5052517;28;20102;-65
2023/01/14 03:21:34;;;;;;;10.00;3.83;;;;;;;1.78;100.00;94322.59;5052080;28;20553;-65
2023/01/14 03:24:13;;;;;;;5.82;2.70;;;;;;;1.57;100.00;94317.44;5052487;28;20076;-65
2023/01/14 03:26:43;;;;;;;5.90;2.30;;;;;;;1.59;100.00;94317.91;5051407;28;20850;-65
2023/01/14 03:29:15;;;;;;;5.97;2.00;;;;;;;1.63;100.00;94309.06;5052048;28;20049;-65
2023/01/14 03:31:50;;;;;;;9.18;1.70;;;;;;;1.73;100.00;94303.94;5051315;28;20289;-65
2023/01/14 03:34:24;;;;;;;4.37;1.70;;;;;;;1.72;100.00;94305.06;5051976;28;20055;-66
2023/01/14 03:36:54;;;;;;;5.32;1.55;;;;;;;1.83;100.00;94301.81;5046912;28;20123;-65
2023/01/14 03:39:23;;;;;;;7.38;2.65;;;;;;;1.38;100.00;94293.00;5051587;28;20039;-65
2023/01/14 03:44:50;;;;;;;8.32;3.05;;;;;;;1.37;100.00;94280.63;5051468;28;20826;-65
2023/01/14 03:47:17;;;;;;;5.87;2.80;;;;;;;1.39;100.00;94272.94;5033980;28;20053;-65
2023/01/14 03:49:44;;;;;;;6.80;2.47;;;;;;;1.30;100.00;94267.69;5051888;28;20045;-65
2023/01/14 03:52:23;;;;;;;6.35;2.00;;;;;;;1.30;100.00;94267.69;5051996;28;20195;-65
2023/01/14 03:55:15;;;;;;;7.78;2.38;;;;;;;1.28;100.00;94267.25;5037853;28;20401;-65
2023/01/14 03:57:41;;;;;;;6.93;2.38;;;;;;;1.29;100.00;94265.34;5050475;28;20265;-65
2023/01/14 04:00:14;;;;;;;5.33;2.20;;;;;;;1.22;100.00;94270.56;5050487;28;20045;-66
2023/01/14 04:02:44;;;;;;;7.85;2.72;;;;;;;1.17;100.00;94274.31;5050656;28;20413;-65
2023/01/14 04:05:11;;;;;;;5.43;2.40;;;;;;;1.18;100.00;94273.97;5051794;28;20166;-65
2023/01/14 04:07:38;;;;;;;7.55;2.47;;;;;;;1.23;100.00;94272.13;5050013;28;20389;-65
2023/01/14 04:10:05;;;;;;;7.97;2.92;;;;;;;1.18;100.00;94271.25;5051065;28;20078;-65
2023/01/14 04:12:31;;;;;;;6.10;2.20;;;;;;;1.22;100.00;94273.28;5051240;28;20070;-64
2023/01/14 04:17:43;;;;;;;11.00;3.40;;;;;;;1.26;100.00;94260.63;5050044;28;21738;-65
2023/01/14 04:20:10;;;;;;;10.75;3.10;;;;;;;1.33;100.00;94258.91;5051179;28;20405;-65
2023/01/14 04:22:37;;;;;;;9.43;2.70;;;;;;;1.37;100.00;94250.88;5050292;28;20771;-65
2023/01/14 04:25:03;;;;;;;8.30;2.13;;;;;;;1.38;100.00;94250.50;5051496;28;20495;-65
2023/01/14 04:27:30;;;;;;;8.52;2.90;;;;;;;1.40;100.00;94255.56;5050315;28;20129;-65
2023/01/14 04:29:57;;;;;;;9.52;3.55;;;;;;;1.47;100.00;94247.66;5051111;28;20053;-65
2023/01/14 04:32:24;;;;;;;9.10;2.70;;;;;;;1.56;100.00;94242.06;5050275;28;20037;-65
2023/01/14 04:34:50;;;;;;;8.40;2.70;;;;;;;1.67;100.00;94236.88;5033279;28;20087;-65
2023/01/14 04:37:17;;;;;;;9.00;2.70;;;;;;;1.71;100.00;94241.28;5050250;28;20033;-65
2023/01/14 04:39:43;;;;;;;7.20;2.00;;;;;;;1.73;100.00;94236.28;5051017;28;20083;-65
2023/01/14 04:42:29;;;;;;;10.27;2.10;;;;;;;1.76;100.00;94234.81;5050992;28;20049;-65
2023/01/14 04:45:01;;;;;;;7.88;1.70;;;;;;;1.73;100.00;94232.78;5049983;28;20825;-65
2023/01/14 04:47:29;;;;;;;11.52;2.05;;;;;;;1.72;100.00;94232.00;5050263;28;20049;-65
2023/01/14 04:49:56;;;;;;;9.07;1.80;;;;;;;1.71;100.00;94227.75;5051039;28;20439;-65
2023/01/14 04:52:23;;;;;;;11.15;2.25;;;;;;;1.66;100.00;94222.59;5050141;28;20049;-65
2023/01/14 04:54:51;;;;;;;9.30;2.25;;;;;;;1.62;100.00;94224.44;5050801;28;20412;-65
2023/01/14 04:57:18;;;;;;;6.72;1.90;;;;;;;1.55;100.00;94224.25;5050223;28;20047;-65
2023/01/14 04:59:45;;;;;;;10.25;2.03;;;;;;;1.48;100.00;94213.28;5037625;28;20048;-65
2023/01/14 05:02:12;;;;;;;12.17;2.20;;;;;;;1.45;100.00;94222.06;5050317;28;20353;-65
2023/01/14 05:04:39;;;;;;;8.13;2.15;;;;;;;1.46;100.00;94227.13;5050645;28;20047;-65
2023/01/14 05:07:05;;;;;;;15.18;2.72;;;;;;;1.50;100.00;94219.91;5050753;28;20098;-65
2023/01/14 05:09:32;;;;;;;9.90;2.50;;;;;;;1.50;100.00;94224.53;5049904;28;20409;-65
2023/01/14 05:11:59;;;;;;;8.98;2.47;;;;;;;1.55;100.00;94219.63;5050552;28;20037;-65
2023/01/14 05:14:25;;;;;;;10.70;2.73;;;;;;;1.55;100.00;94213.44;5050019;28;20048;-65
2023/01/14 05:16:52;;;;;;;11.30;2.50;;;;;;;1.47;100.00;94206.28;5049086;28;20047;-65
2023/01/14 05:19:21;;;;;;;9.77;2.65;;;;;;;1.45;100.00;94206.66;5037313;28;20051;-65
2023/01/14 05:21:48;;;;;;;12.88;2.97;;;;;;;1.43;100.00;94219.75;5049455;28;20055;-65
2023/01/14 05:24:15;;;;;;;13.40;2.88;;;;;;;1.47;100.00;94217.09;5049299;28;20094;-64
2023/01/14 05:26:42;;;;;;;10.70;2.67;;;;;;;1.49;100.00;94215.63;5049779;28;20041;-65
2023/01/14 05:29:08;;;;;;;12.27;2.85;;;;;;;1.57;100.00;94222.78;5050167;28;20071;-65
2023/01/14 05:31:35;;;;;;;10.55;3.25;;;;;;;1.62;100.00;94223.66;5049786;28;20041;-65
2023/01/14 05:34:03;;;;;;;15.80;3.13;;;;;;;1.71;100.00;94216.91;5049896;28;20501;-65
2023/01/14 05:36:29;;;;;;;8.98;3.13;;;;;;;1.70;100.00;94214.56;5049523;28;20109;-65
2023/01/14 05:38:56;;;;;;;9.30;3.13;;;;;;;1.73;100.00;94219.25;5049602;28;20041;-65
2023/01/14 05:41:23;;;;;;;12.05;3.10;;;;;;;1.77;100.00;94222.81;5049179;28;20056;-65
2023/01/14 05:46:34;;;;;;;9.55;2.90;;;;;;;1.89;100.00;94214.63;5049046;28;20072;-65
2023/01/14 05:49:01;;;;;;;10.13;3.08;;;;;;;1.90;100.00;94218.09;5050009;28;20045;-65
2023/01/14 05:51:28;;;;;;;9.27;3.10;;;;;;;1.88;100.00;94217.66;5049564;28;20041;-64
2023/01/14 05:53:54;;;;;;;8.73;2.72;;;;;;;1.93;100.00;94214.69;5049801;28;20127;-65
2023/01/14 05:56:21;;;;;;;11.07;2.88;;;;;;;1.89;100.00;94216.53;5049484;28;20045;-65
2023/01/14 05:58:48;;;;;;;10.45;2.85;;;;;;;1.91;100.00;94217.75;5050013;28;20049;-65
2023/01/14 06:06:47;;;;;;;12.65;4.53;;;;;;;1.88;100.00;94223.84;5049188;28;20381;-65
2023/01/14 06:09:16;;;;;;;13.63;3.42;;;;;;;1.82;100.00;94219.88;5048893;28;20056;-65
2023/01/14 06:11:46;;;;;;;13.90;2.85;;;;;;;1.88;100.00;94209.56;5049681;28;20045;-65
2023/01/14 06:14:12;;;;;;;11.65;3.45;;;;;;;1.89;100.00;94203.00;5049195;28;20045;-64
2023/01/14 06:16:39;;;;;;;11.93;3.70;;;;;;;1.85;100.00;94196.72;5049539;28;20051;-65
2023/01/14 06:19:14;;;;;;;12.27;3.35;;;;;;;1.76;100.00;94197.69;5049683;28;20078;-65
2023/01/14 06:21:41;;;;;;;10.80;3.10;;;;;;;1.72;100.00;94198.75;5048979;28;20434;-65
2023/01/14 06:24:08;;;;;;;10.70;2.97;;;;;;;1.69;100.00;94191.34;5049673;28;20041;-64
2023/01/14 06:26:36;;;;;;;14.88;3.42;;;;;;;1.66;100.00;94192.06;5049119;28;20051;-64
2023/01/14 06:29:10;;;;;;;10.73;3.13;;;;;;;1.67;100.00;94197.13;5037040;28;20049;-64
2023/01/14 06:31:39;;;;;;;10.73;3.05;;;;;;;1.60;100.00;94195.00;5048672;28;20845;-65
2023/01/14 06:34:06;;;;;;;7.82;2.67;;;;;;;1.61;100.00;94190.41;5052741;28;20040;-65
2023/01/14 06:36:34;;;;;;;10.30;3.90;;;;;;;1.62;100.00;94183.84;5052934;28;20383;-65
2023/01/14 06:39:01;;;;;;;9.45;3.95;;;;;;;1.67;100.00;94186.28;5053038;28;20051;-65
2023/01/14 06:41:28;;;;;;;9.97;2.77;;;;;;;1.73;100.00;94178.66;5052756;28;20044;-65
2023/01/14 06:43:54;;;;;;;9.45;3.03;;;;;;;1.79;100.00;94177.25;5053230;28;20043;-65
2023/01/14 06:46:21;;;;;;;11.35;2.97;;;;;;;1.84;100.00;94174.28;5052596;28;20107;-65
2023/01/14 06:48:48;;;;;;;8.23;2.40;;;;;;;1.79;100.00;94174.56;5035039;28;20611;-65
2023/01/14 06:51:17;;;;;;;13.45;2.25;;;;;;;1.79;100.00;94175.34;5052233;28;20420;-65
2023/01/14 06:53:44;;;;;;;12.43;3.20;;;;;;;1.87;100.00;94183.63;5052663;28;20390;-65
2023/01/14 06:56:13;;;;;;;8.82;2.28;;;;;;;1.85;100.00;94175.88;5052874;28;20043;-65
2023/01/14 06:58:40;;;;;;;10.70;2.67;;;;;;;1.85;100.00;94170.47;5051867;28;20295;-65
2023/01/14 07:01:09;;;;;;;9.63;2.10;;;;;;;1.84;100.00;94168.88;5052952;28;20287;-65
2023/01/14 07:03:37;;;;;;;16.10;3.97;;;;;;;1.79;100.00;94159.13;5051764;28;20092;-65
2023/01/14 07:06:04;;;;;;;16.73;4.27;;;;;;;1.82;100.00;94163.03;5052907;28;20037;-65
2023/01/14 07:08:31;;;;;;;11.88;4.13;;;;;;;1.73;100.00;94162.44;5052224;28;20452;-65
2023/01/14 07:10:57;;;;;;;25.02;7.60;;;;;;;1.68;100.00;94160.78;5052817;28;20049;-65
2023/01/14 07:13:24;;;;;;;20.65;6.63;;;;;;;1.66;100.00;94165.00;5051164;28;20048;-65
2023/01/14 07:15:51;;;;;;;26.42;7.78;;;;;;;1.68;100.00;94149.19;5052290;28;20429;-65
2023/01/14 07:18:19;;;;;;;15.03;4.07;;;;;;;1.55;100.00;94149.31;5051873;28;20041;-65
2023/01/14 07:20:45;;;;;;;18.08;5.53;;;;;;;1.63;100.00;94136.75;5052299;28;20086;-65
2023/01/14 07:23:12;;;;;;;12.77;4.50;;;;;;;1.71;100.00;94140.34;5051772;28;20417;-65
2023/01/14 07:25:39;;;;;;;8.10;2.88;;;;;;;1.69;100.00;94142.63;5052561;28;20481;-65
2023/01/14 07:28:06;;;;;;;10.02;3.45;;;;;;;1.89;100.00;94136.13;5052326;28;20087;-65
2023/01/14 07:30:33;;;;;;;8.60;2.60;;;;;;;1.79;100.00;94140.19;5051811;28;20127;-65
2023/01/14 07:33:00;;;;;;;11.43;2.35;;;;;;;1.88;100.00;94136.47;5052381;28;20049;-65
2023/01/14 07:35:30;;;;;;;7.30;2.00;;;;;;;2.13;100.00;94129.66;5051686;28;20067;-65
2023/01/14 07:37:59;;;;;;;8.13;1.80;;;;;;;2.21;100.00;94127.88;5052210;28;20478;-65
2023/01/14 07:40:26;;;;;;;7.63;2.00;;;;;;;2.21;100.00;94119.75;5051387;28;20150;-65
2023/01/14 07:43:00;;;;;;;13.07;3.37;;;;;;;2.26;100.00;94116.75;5052054;28;20041;-65
2023/01/14 07:45:27;;;;;;;8.57;2.88;;;;;;;2.26;100.00;94118.69;5050404;28;20049;-66
2023/01/14 07:47:55;;;;;;;9.68;2.63;;;;;;;2.36;100.00;94112.69;5052190;28;20039;-65
2023/01/14 07:50:22;;;;;;;10.32;2.50;;;;;;;2.44;100.00;94110.91;5051032;28;20049;-65
2023/01/14 07:52:53;;;;;;;9.25;2.28;;;;;;;2.36;100.00;94104.56;5051754;28;20386;-65
2023/01/14 07:55:20;;;;;;;8.00;2.13;;;;;;;2.50;100.00;94106.75;5051257;28;20409;-65
2023/01/14 07:57:47;;;;;;;10.40;2.10;;;;;;;2.63;100.00;94097.31;5051732;28;20406;-65
2023/01/14 08:00:15;;;;;;;8.15;3.30;;;;;;;2.62;100.00;94100.38;5050921;28;20479;-65
2023/01/14 08:02:42;;;;;;;12.10;4.50;;;;;;;2.68;100.00;94099.72;5051377;28;20489;-65
2023/01/14 08:05:09;;;;;;;10.35;3.50;;;;;;;2.75;100.00;94102.53;5051612;28;20458;-65
2023/01/14 08:07:36;;;;;;;8.33;3.03;;;;;;;2.88;100.00;94092.31;5051121;28;20043;-65
2023/01/14 08:10:04;;;;;;;9.95;3.50;;;;;;;2.80;100.00;94090.63;5051236;28;20063;-65
2023/01/14 08:12:33;;;;;;;10.10;3.33;;;;;;;2.73;100.00;94094.00;5040372;28;20094;-65
2023/01/14 08:15:05;;;;;;;9.90;3.08;;;;;;;2.79;100.00;94091.78;5051131;28;20456;-66
2023/01/14 08:17:32;;;;;;;9.95;2.97;;;;;;;3.73;100.00;94089.31;5050952;28;20378;-65
2023/01/14 08:19:59;;;;;;;7.43;2.50;;;;;;;5.42;100.00;94098.44;5033405;28;20049;-65
2023/01/14 08:22:28;;;;;;;8.35;2.60;;;;;;;6.32;99.23;94097.78;5050757;28;20045;-66
2023/01/14 08:24:56;;;;;;;6.35;2.55;;;;;;;6.57;93.68;94086.19;5051358;28;20398;-63
2023/01/14 08:27:22;;;;;;;8.23;2.40;;;;;;;7.01;90.79;94082.38;5049852;28;20048;-65
2023/01/14 08:29:49;;;;;;;12.82;5.80;;;;;;;5.48;95.67;94084.09;5051102;28;20033;-65
2023/01/14 08:32:16;;;;;;;8.00;2.60;;;;;;;4.99;100.00;94077.88;5050644;28;20041;-65
2023/01/14 08:34:43;;;;;;;6.47;2.28;;;;;;;6.28;95.55;94063.50;5050839;28;20138;-64
2023/01/14 08:37:09;;;;;;;7.45;2.25;;;;;;;7.31;89.58;94059.38;5051146;28;20041;-64
2023/01/14 08:39:36;;;;;;;7.43;2.50;;;;;;;7.50;86.92;94053.47;5050033;28;20040;-64
2023/01/14 08:42:03;;;;;;;6.53;2.60;;;;;;;7.82;85.23;94047.19;5050956;28;20489;-65
2023/01/14 08:44:30;;;;;;;5.53;1.80;;;;;;;7.89;82.72;94060.84;5050238;28;20665;-64
2023/01/14 08:46:56;;;;;;;9.20;2.47;;;;;;;7.28;84.52;94051.94;5050798;28;20449;-64
2023/01/14 08:49:23;;;;;;;10.07;3.47;;;;;;;6.80;86.46;94056.63;5050240;28;20044;-64
2023/01/14 08:51:50;;;;;;;8.85;2.22;;;;;;;6.88;87.73;94057.41;5050252;28;20033;-64
2023/01/14 08:54:17;;;;;;;7.43;2.40;;;;;;;7.19;85.85;94055.84;5050005;28;20051;-64
2023/01/14 08:56:43;;;;;;;8.73;2.23;;;;;;;6.54;90.06;94043.31;5050433;28;20559;-64
2023/01/14 08:59:11;;;;;;;6.93;2.15;;;;;;;6.56;90.66;94040.97;5050446;28;20060;-64
2023/01/14 09:01:38;;;;;;;10.07;3.50;;;;;;;6.22;91.88;94033.13;5048894;28;21775;-64
2023/01/14 09:04:19;;;;;;;8.40;2.63;;;;;;;5.82;95.67;94007.66;5050275;28;20033;-64
2023/01/14 09:17:55;;;;;;;6.72;2.30;;;;;;;5.00;100.00;94014.16;5049511;28;20726;-64
2023/01/14 09:20:33;;;;;;;4.95;2.08;;;;;;;4.83;100.00;94022.19;5049400;28;20049;-63
2023/01/14 09:23:02;;;;;;;6.93;2.20;;;;;;;4.66;100.00;94018.94;5050351;28;20044;-63
2023/01/14 09:25:28;;;;;;;7.30;2.20;;;;;;;5.02;100.00;94013.78;5049617;28;20037;-64
2023/01/14 09:27:55;;;;;;;5.75;2.50;;;;;;;5.04;100.00;94019.63;5050188;28;20041;-64
2023/01/14 09:30:22;;;;;;;9.85;2.25;;;;;;;4.98;100.00;94023.88;5049414;28;20044;-64
2023/01/14 09:32:49;;;;;;;8.77;2.40;;;;;;;4.94;100.00;94014.91;5050289;28;20443;-64
2023/01/14 09:35:16;;;;;;;6.10;1.67;;;;;;;5.27;100.00;94005.00;5049433;28;20047;-63
2023/01/14 09:37:42;;;;;;;6.20;2.00;;;;;;;6.36;93.55;94000.44;5049792;28;20094;-64
2023/01/14 09:40:10;;;;;;;7.57;2.10;;;;;;;6.74;87.59;94006.34;5049989;28;20459;-64
2023/01/14 09:42:42;;;;;;;7.57;1.90;;;;;;;7.31;86.07;93994.63;5049184;28;21495;-64
2023/01/14 09:45:30;;;;;;;11.40;2.45;;;;;;;7.30;83.24;93993.06;5049747;28;20037;-64
2023/01/14 09:48:03;;;;;;;6.60;1.73;;;;;;;6.89;85.48;93988.03;5049234;28;20084;-65
2023/01/14 09:50:46;;;;;;;7.55;2.65;;;;;;;6.58;89.06;93987.63;5049461;28;20063;-64
2023/01/14 09:53:24;;;;;;;8.63;1.90;;;;;;;6.47;89.64;93981.38;5031840;28;20057;-64
2023/01/14 09:56:04;;;;;;;7.32;2.08;;;;;;;6.98;88.14;93982.97;5049853;28;20045;-64
2023/01/14 09:58:38;;;;;;;8.07;2.15;;;;;;;6.91;87.70;93968.56;5049474;28;20062;-64
2023/01/14 10:01:22;;;;;;;8.10;2.33;;;;;;;6.46;90.32;93957.22;5049705;28;20040;-64
2023/01/14 10:04:07;;;;;;;9.13;2.80;;;;;;;6.17;92.53;93955.22;5048868;28;20064;-64
2023/01/14 10:06:35;;;;;;;9.05;3.20;;;;;;;5.86;93.28;93951.25;5049434;28;20041;-64
2023/01/14 10:09:26;;;;;;;9.70;3.97;;;;;;;5.80;95.54;93942.66;5052984;28;20117;-63
2023/01/14 10:11:53;;;;;;;11.43;5.45;;;;;;;5.56;97.04;93949.56;5052707;28;20053;-64
2023/01/14 10:14:30;;;;;;;8.03;2.77;;;;;;;5.49;98.77;93948.75;5053131;28;20115;-64
2023/01/14 10:17:04;;;;;;;9.10;2.53;;;;;;;5.54;98.96;93937.53;5053505;28;20452;-64
2023/01/14 10:19:49;;;;;;;7.82;2.00;;;;;;;5.38;99.71;93943.28;5053219;28;20056;-64
2023/01/14 10:22:45;;;;;;;7.10;1.90;;;;;;;5.42;99.49;93951.47;5052906;28;20052;-63
2023/01/14 10:25:30;;;;;;;10.27;2.47;;;;;;;5.67;96.80;93946.13;5052759;28;20053;-64
2023/01/14 10:27:59;;;;;;;10.20;2.00;;;;;;;5.60;95.66;93938.72;5042557;28;20063;-64
2023/01/14 10:30:36;;;;;;;9.52;2.40;;;;;;;5.51;96.90;93944.47;5052871;28;20041;-64
2023/01/14 10:33:06;;;;;;;10.45;2.85;;;;;;;5.55;98.85;93925.44;5053227;28;20045;-64
2023/01/14 10:35:38;;;;;;;9.00;2.47;;;;;;;5.66;98.43;93915.41;5052359;28;20032;-64
2023/01/14 10:38:06;;;;;;;6.03;1.88;;;;;;;5.47;97.78;93910.25;5052668;28;20063;-64
2023/01/14 10:40:34;;;;;;;6.50;1.90;;;;;;;5.65;98.66;93913.81;5052274;28;20040;-64
2023/01/14 10:43:02;;;;;;;7.55;2.00;;;;;;;5.45;97.95;93907.91;5035523;28;20041;-63
2023/01/14 10:45:29;;;;;;;7.70;2.47;;;;;;;5.75;99.05;93898.69;5034337;28;20060;-63
2023/01/14 10:48:06;;;;;;;7.75;2.28;;;;;;;5.49;96.77;93900.53;5052881;28;20062;-63
2023/01/14 10:50:33;;;;;;;9.15;1.95;;;;;;;5.36;97.91;93897.38;5052272;28;20045;-64
2023/01/14 10:53:15;;;;;;;4.77;1.60;;;;;;;5.42;98.41;93889.63;5052734;28;20148;-63
2023/01/14 10:55:55;;;;;;;7.00;1.85;;;;;;;5.76;97.46;93892.88;5051540;28;20525;-64
2023/01/14 10:58:37;;;;;;;6.85;2.00;;;;;;;5.44;97.55;93878.38;5034633;28;20071;-64
2023/01/14 11:01:06;;;;;;;5.70;1.42;;;;;;;5.24;98.35;93867.81;5039613;28;20037;-64
2023/01/14 11:03:39;;;;;;;7.15;2.15;;;;;;;5.46;99.42;93865.94;5051971;28;20067;-65
2023/01/14 11:06:07;;;;;;;5.83;1.60;;;;;;;5.34;97.98;93849.97;5052999;28;20079;-64
2023/01/14 11:08:38;;;;;;;6.60;1.50;;;;;;;5.36;99.56;93845.69;5052294;28;20044;-65
2023/01/14 11:11:10;;;;;;;6.05;1.60;;;;;;;5.22;99.68;93844.88;5052493;28;20051;-64
2023/01/14 11:13:45;;;;;;;7.97;1.55;;;;;;;5.16;100.00;93839.00;5051715;28;20634;-64
2023/01/14 11:16:27;;;;;;;7.93;2.20;;;;;;;5.13;100.00;93848.72;5051919;28;20053;-61
2023/01/14 11:19:19;;;;;;;8.23;1.97;;;;;;;5.44;100.00;93840.28;5051410;28;20401;-65
2023/01/14 11:21:50;;;;;;;7.43;1.63;;;;;;;5.39;100.00;93830.53;5051629;28;20116;-66
2023/01/14 11:24:38;;;;;;;6.80;2.05;;;;;;;5.30;100.00;93819.25;5051538;28;20045;-64
2023/01/14 11:27:20;;;;;;;6.82;1.90;;;;;;;5.32;100.00;93816.91;5051914;28;20049;-64
2023/01/14 11:29:52;;;;;;;6.82;2.00;;;;;;;5.33;99.92;93813.00;5051639;28;21578;-64
2023/01/14 11:32:26;;;;;;;10.20;1.90;;;;;;;5.13;100.00;93810.63;5033965;28;20053;-64
2023/01/14 11:34:59;;;;;;;6.25;1.63;;;;;;;5.18;100.00;93809.47;5051718;28;20053;-64
2023/01/14 11:37:34;;;;;;;7.78;2.00;;;;;;;5.39;100.00;93814.19;5051401;28;20049;-64
2023/01/14 11:40:03;;;;;;;6.43;1.70;;;;;;;5.31;100.00;93807.19;5052159;28;20443;-65
2023/01/14 11:42:38;;;;;;;7.40;2.00;;;;;;;5.24;100.00;93796.28;5051616;28;20040;-65
2023/01/14 11:45:11;;;;;;;11.67;3.47;;;;;;;5.46;99.87;93786.25;5051854;28;20037;-64
2023/01/14 11:47:53;;;;;;;7.43;2.20;;;;;;;5.42;100.00;93780.00;5051169;28;20767;-65
2023/01/14 11:50:29;;;;;;;6.35;2.17;;;;;;;5.52;98.83;93768.38;5051446;28;20099;-65
2023/01/14 11:53:08;;;;;;;7.68;2.28;;;;;;;5.55;99.80;93752.03;5034130;28;20041;-65
2023/01/14 11:55:39;;;;;;;6.75;1.80;;;;;;;5.73;97.87;93752.03;5051134;28;20053;-65
2023/01/14 11:58:28;;;;;;;8.13;2.70;;;;;;;5.78;99.73;93740.00;5051747;28;20041;-65
2023/01/14 12:01:03;;;;;;;6.40;2.17;;;;;;;5.81;95.55;93731.03;5050569;28;20056;-64
2023/01/14 12:03:49;;;;;;;4.95;2.20;;;;;;;6.04;96.29;93729.88;5051575;28;20045;-65
2023/01/14 12:06:22;;;;;;;13.98;5.65;;;;;;;6.36;95.26;93722.44;5040743;28;20041;-64
2023/01/14 12:08:53;;;;;;;7.90;2.70;;;;;;;6.00;94.33;93721.72;5051730;28;20049;-65
2023/01/14 12:11:27;;;;;;;6.00;2.03;;;;;;;5.77;95.11;93713.91;5051163;28;20440;-65
2023/01/14 12:16:56;;;;;;;6.53;2.85;;;;;;;5.92;95.54;93698.38;5050447;28;20802;-65
2023/01/14 12:19:38;;;;;;;7.00;2.20;;;;;;;5.98;94.96;93700.31;5051064;28;20094;-65
2023/01/14 12:22:15;;;;;;;8.05;2.20;;;;;;;5.78;96.57;93701.88;5051319;28;20114;-65
2023/01/14 12:24:54;;;;;;;4.97;2.10;;;;;;;5.72;96.00;93698.75;5050426;28;20045;-64
2023/01/14 12:27:43;;;;;;;6.03;2.33;;;;;;;5.70;96.85;93683.97;5050271;28;20049;-65